createdAt,value
2019-06-20T00:01:41.661Z,49.50
2019-06-20T00:04:10.099Z,49.50
2019-06-20T00:06:38.527Z,49.50
2019-06-20T00:09:07.947Z,49.30
2019-06-20T00:11:36.635Z,49.20
2019-06-20T00:14:05.050Z,49.60
2019-06-20T00:16:33.506Z,49.20
2019-06-20T00:19:01.915Z,49.40
2019-06-20T00:21:30.345Z,49.90
2019-06-20T00:23:58.763Z,49.60
2019-06-20T00:26:27.190Z,49.70
2019-06-20T00:28:55.614Z,49.90
2019-06-20T00:31:24.038Z,49.90
2019-06-20T00:33:52.458Z,49.80
2019-06-20T00:36:20.879Z,49.90
2019-06-20T00:38:49.311Z,49.70
2019-06-20T00:41:17.743Z,50.40
2019-06-20T00:43:46.167Z,49.70
2019-06-20T00:46:15.068Z,49.60
2019-06-20T00:48:43.484Z,49.40
2019-06-20T00:51:11.974Z,49.10
2019-06-20T00:53:40.393Z,49.00
2019-06-20T00:56:08.817Z,48.90
2019-06-20T00:58:37.235Z,48.50
2019-06-20T01:01:06.516Z,48.30
2019-06-20T01:03:34.930Z,48.50
2019-06-20T01:06:03.600Z,48.70
2019-06-20T01:08:32.084Z,49.20
2019-06-20T01:11:00.516Z,48.50
2019-06-20T01:13:33.744Z,48.30
2019-06-20T01:15:59.137Z,48.50
2019-06-20T01:18:27.578Z,48.50
2019-06-20T01:20:56.065Z,49.00
2019-06-20T01:23:24.546Z,48.80
2019-06-20T01:25:53.126Z,49.70
2019-06-20T01:28:21.611Z,49.00
2019-06-20T01:30:50.057Z,49.20
2019-06-20T01:33:18.459Z,49.30
2019-06-20T01:35:47.625Z,49.10
2019-06-20T01:38:16.051Z,49.40
2019-06-20T01:40:44.535Z,49.50
2019-06-20T01:43:13.038Z,49.80
2019-06-20T01:45:41.598Z,49.80
2019-06-20T01:48:10.016Z,50.90
2019-06-20T01:50:38.423Z,50.10
2019-06-20T01:53:06.861Z,50.70
2019-06-20T01:55:35.345Z,50.90
2019-06-20T01:58:03.843Z,50.90
2019-06-20T02:00:35.594Z,51.00
2019-06-20T02:03:04.170Z,51.10
2019-06-20T02:05:32.593Z,51.00
2019-06-20T02:08:01.035Z,51.00
2019-06-20T02:10:29.512Z,51.70
2019-06-20T02:12:57.951Z,52.00
2019-06-20T02:15:26.363Z,52.30
2019-06-20T02:17:54.791Z,52.30
2019-06-20T02:20:53.213Z,53.30
2019-06-20T02:23:22.883Z,52.90
2019-06-20T02:25:51.307Z,53.50
2019-06-20T02:28:19.912Z,53.90
2019-06-20T02:30:48.464Z,54.60
2019-06-20T02:33:17.052Z,55.10
2019-06-20T02:35:45.536Z,55.70
2019-06-20T02:38:13.972Z,56.00
2019-06-20T02:40:42.470Z,56.20
2019-06-20T02:43:11.025Z,56.60
2019-06-20T02:45:39.598Z,56.80
2019-06-20T02:48:08.226Z,57.20
2019-06-20T02:50:36.810Z,57.40
2019-06-20T02:53:05.774Z,57.50
2019-06-20T02:55:34.191Z,57.50
2019-06-20T02:58:02.687Z,58.50
2019-06-20T03:00:53.892Z,58.10
2019-06-20T03:03:21.538Z,57.90
2019-06-20T03:05:49.956Z,57.30
2019-06-20T03:08:18.390Z,57.80
2019-06-20T03:10:46.806Z,58.00
2019-06-20T03:13:15.403Z,58.30
2019-06-20T03:15:43.819Z,58.60
2019-06-20T03:18:12.247Z,58.60
2019-06-20T03:20:40.668Z,58.70
2019-06-20T03:23:09.097Z,58.90
2019-06-20T03:25:37.516Z,59.10
2019-06-20T03:28:06.215Z,59.70
2019-06-20T03:30:34.702Z,60.60
2019-06-20T03:33:03.127Z,60.20
2019-06-20T03:35:31.546Z,60.60
2019-06-20T03:38:00.041Z,60.40
2019-06-20T03:40:28.452Z,60.30
2019-06-20T03:42:56.890Z,60.00
2019-06-20T03:45:25.298Z,60.50
2019-06-20T03:47:53.778Z,62.10
2019-06-20T03:50:22.244Z,62.00
2019-06-20T03:52:52.380Z,61.40
2019-06-20T03:55:21.083Z,60.90
2019-06-20T03:57:49.508Z,60.90
2019-06-20T04:00:20.132Z,61.30
2019-06-20T04:02:48.558Z,61.30
2019-06-20T04:05:16.975Z,61.10
2019-06-20T04:07:45.395Z,61.20
2019-06-20T04:10:14.051Z,61.00
2019-06-20T04:12:42.458Z,60.90
2019-06-20T04:15:18.867Z,60.70
2019-06-20T04:17:41.285Z,60.70
2019-06-20T04:20:09.784Z,60.90
2019-06-20T04:22:38.219Z,60.80
2019-06-20T04:25:07.337Z,60.80
2019-06-20T04:27:35.759Z,60.90
2019-06-20T04:30:06.823Z,61.10
2019-06-20T04:32:34.440Z,61.00
2019-06-20T04:35:03.448Z,59.80
2019-06-20T04:37:31.873Z,60.30
2019-06-20T04:40:00.312Z,60.40
2019-06-20T04:42:28.735Z,60.60
2019-06-20T04:44:58.875Z,60.40
2019-06-20T04:47:27.371Z,60.50
2019-06-20T04:49:55.802Z,60.30
2019-06-20T04:52:24.214Z,60.20
2019-06-20T04:54:52.666Z,60.20
2019-06-20T04:57:21.161Z,60.00
2019-06-20T04:59:51.271Z,59.80
2019-06-20T05:02:21.328Z,59.70
2019-06-20T05:04:49.759Z,59.80
2019-06-20T05:07:19.783Z,59.90
2019-06-20T05:09:48.211Z,59.70
2019-06-20T05:12:16.632Z,60.00
2019-06-20T05:14:45.063Z,60.00
2019-06-20T05:17:13.487Z,60.00
2019-06-20T05:19:41.907Z,59.80
2019-06-20T05:22:10.381Z,59.80
2019-06-20T05:24:38.856Z,59.90
2019-06-20T05:27:07.351Z,59.70
2019-06-20T05:29:35.770Z,59.70
2019-06-20T05:32:04.187Z,59.40
2019-06-20T05:34:32.621Z,59.40
2019-06-20T05:37:01.026Z,59.40
2019-06-20T05:39:29.463Z,59.40
2019-06-20T05:41:57.923Z,59.50
2019-06-20T05:44:26.388Z,59.30
2019-06-20T05:47:11.378Z,59.20
2019-06-20T05:49:24.939Z,58.80
2019-06-20T05:51:53.372Z,58.50
2019-06-20T05:54:22.371Z,58.30
2019-06-20T05:56:50.786Z,58.00
2019-06-20T05:59:19.201Z,57.90
2019-06-20T06:01:47.622Z,57.80
2019-06-20T06:04:16.038Z,58.30
2019-06-20T06:06:44.540Z,57.70
2019-06-20T06:09:12.951Z,57.70
2019-06-20T06:11:41.460Z,57.70
2019-06-20T06:14:09.899Z,57.70
2019-06-20T06:16:38.383Z,57.60
2019-06-20T06:19:06.799Z,57.60
2019-06-20T06:21:35.267Z,57.40
2019-06-20T06:24:03.677Z,57.20
2019-06-20T06:26:32.104Z,57.00
2019-06-20T06:29:00.518Z,57.00
2019-06-20T06:31:28.960Z,57.00
2019-06-20T06:33:57.436Z,56.80
2019-06-20T06:36:25.875Z,57.30
2019-06-20T06:38:54.387Z,57.70
2019-06-20T06:41:22.815Z,57.90
2019-06-20T06:43:51.234Z,58.30
2019-06-20T06:46:19.672Z,58.50
2019-06-20T06:48:48.163Z,59.30
2019-06-20T06:51:16.596Z,60.20
2019-06-20T06:53:45.032Z,61.00
2019-06-20T06:56:13.455Z,61.60
2019-06-20T06:58:41.959Z,62.20
2019-06-20T07:01:10.498Z,63.00
2019-06-20T07:03:38.915Z,63.60
2019-06-20T07:06:07.416Z,64.20
2019-06-20T07:08:35.866Z,64.60
2019-06-20T07:11:04.494Z,65.00
2019-06-20T07:13:33.072Z,64.50
2019-06-20T07:16:01.513Z,64.70
2019-06-20T07:18:29.927Z,64.90
2019-06-20T07:20:58.366Z,65.00
2019-06-20T07:23:26.787Z,65.90
2019-06-20T07:25:55.216Z,66.50
2019-06-20T07:28:23.633Z,67.00
2019-06-20T07:30:52.062Z,67.00
2019-06-20T07:33:20.487Z,67.30
2019-06-20T07:35:48.927Z,67.50
2019-06-20T07:38:17.344Z,68.20
2019-06-20T07:40:45.759Z,68.20
2019-06-20T07:43:14.289Z,68.50
2019-06-20T07:45:42.819Z,69.10
2019-06-20T07:48:11.322Z,69.70
2019-06-20T07:50:39.731Z,70.20
2019-06-20T07:53:08.181Z,72.10
2019-06-20T07:55:36.597Z,74.60
2019-06-20T07:58:05.543Z,74.60
2019-06-20T08:00:34.302Z,73.70
2019-06-20T08:03:02.805Z,71.30
2019-06-20T08:05:31.221Z,70.00
2019-06-20T08:07:59.648Z,69.90
2019-06-20T08:10:28.199Z,68.30
2019-06-20T08:12:56.703Z,66.00
2019-06-20T08:15:25.266Z,64.70
2019-06-20T08:17:53.693Z,64.00
2019-06-20T08:20:24.439Z,63.80
2019-06-20T08:22:52.864Z,63.00
2019-06-20T08:25:21.711Z,62.40
2019-06-20T08:27:53.493Z,62.30
2019-06-20T08:30:34.182Z,62.20
2019-06-20T08:33:07.554Z,62.60
2019-06-20T08:35:33.394Z,62.90
2019-06-20T08:38:03.499Z,61.40
2019-06-20T08:40:35.528Z,59.80
2019-06-20T08:43:04.394Z,58.40
2019-06-20T08:45:33.858Z,57.60
2019-06-20T08:48:02.783Z,56.70
2019-06-20T08:50:31.947Z,55.20
2019-06-20T08:53:01.655Z,56.20
2019-06-20T08:55:30.691Z,56.70
2019-06-20T08:57:59.692Z,56.50
2019-06-20T09:00:31.135Z,54.80
2019-06-20T09:03:00.434Z,55.20
2019-06-20T09:05:30.849Z,56.10
2019-06-20T09:10:35.856Z,53.10
2019-06-20T09:13:04.928Z,52.20
2019-06-20T09:15:33.420Z,51.60
2019-06-20T09:18:02.915Z,51.10
2019-06-20T09:20:31.617Z,48.60
2019-06-20T09:23:03.366Z,47.70
2019-06-20T09:25:31.991Z,47.80
2019-06-20T09:28:02.696Z,46.80
2019-06-20T09:30:31.487Z,45.10
2019-06-20T09:33:00.016Z,42.60
2019-06-20T09:35:28.595Z,43.20
2019-06-20T09:37:57.254Z,42.80
2019-06-20T09:40:25.841Z,42.00
2019-06-20T09:42:54.504Z,42.90
2019-06-20T09:45:23.434Z,43.30
2019-06-20T09:47:52.220Z,43.60
2019-06-20T09:50:21.505Z,44.20
2019-06-20T09:52:51.389Z,43.80
2019-06-20T09:55:20.388Z,43.30
2019-06-20T09:57:50.309Z,43.20
2019-06-20T10:00:21.800Z,42.80
2019-06-20T10:02:51.789Z,42.90
2019-06-20T10:05:20.373Z,42.30
2019-06-20T10:07:50.190Z,42.40
2019-06-20T10:10:19.287Z,42.90
2019-06-20T10:12:47.954Z,42.20
2019-06-20T10:15:25.671Z,42.00
2019-06-20T10:17:54.486Z,42.30
2019-06-20T10:20:23.673Z,42.10
2019-06-20T10:22:53.084Z,40.90
2019-06-20T10:25:22.169Z,41.20
2019-06-20T10:27:51.392Z,40.50
2019-06-20T10:30:21.806Z,39.90
2019-06-20T10:32:50.985Z,38.80
2019-06-20T10:35:20.088Z,38.20
2019-06-20T10:37:48.665Z,38.60
2019-06-20T10:40:18.566Z,38.50
2019-06-20T10:42:48.126Z,38.20
2019-06-20T10:45:18.592Z,38.30
2019-06-20T10:47:47.587Z,38.50
2019-06-20T10:50:18.746Z,39.00
2019-06-20T10:52:48.060Z,40.00
2019-06-20T10:55:17.211Z,38.70
2019-06-20T10:57:46.762Z,38.80
2019-06-20T11:00:30.297Z,39.20
2019-06-20T11:02:47.523Z,38.80
2019-06-20T11:05:16.309Z,39.40
2019-06-20T11:07:45.622Z,39.40
2019-06-20T11:10:15.115Z,39.40
2019-06-20T11:12:52.189Z,38.70
2019-06-20T11:15:14.315Z,38.90
2019-06-20T11:17:44.057Z,38.70
2019-06-20T11:20:13.086Z,38.90
2019-06-20T11:22:41.657Z,38.80
2019-06-20T11:25:11.022Z,38.50
2019-06-20T11:27:40.532Z,38.10
2019-06-20T11:30:12.156Z,38.20
2019-06-20T11:32:41.017Z,38.40
2019-06-20T11:35:09.923Z,38.40
2019-06-20T11:37:39.624Z,38.50
2019-06-20T11:40:08.448Z,38.80
2019-06-20T11:42:37.764Z,38.50
2019-06-20T11:45:07.272Z,39.60
2019-06-20T11:47:36.633Z,39.70
2019-06-20T11:50:09.481Z,40.10
2019-06-20T11:52:42.113Z,40.00
2019-06-20T11:55:08.703Z,40.40
2019-06-20T11:57:37.187Z,40.40
2019-06-20T12:00:08.353Z,40.80
2019-06-20T12:02:36.765Z,40.30
2019-06-20T12:05:11.548Z,39.80
2019-06-20T12:07:41.500Z,39.30
2019-06-20T12:10:10.854Z,38.80
2019-06-20T12:12:40.821Z,39.20
2019-06-20T12:15:10.029Z,39.40
2019-06-20T12:17:40.979Z,38.90
2019-06-20T12:20:09.609Z,38.90
2019-06-20T12:22:39.492Z,39.10
2019-06-20T12:25:09.627Z,38.90
2019-06-20T12:27:38.867Z,39.10
2019-06-20T12:30:09.871Z,38.60
2019-06-20T12:32:39.177Z,38.30
2019-06-20T12:35:09.191Z,37.50
2019-06-20T12:37:37.604Z,37.20
2019-06-20T12:40:07.222Z,36.90
2019-06-20T12:42:35.663Z,36.30
2019-06-20T12:45:05.423Z,35.60
2019-06-20T12:47:33.850Z,35.40
2019-06-20T12:50:02.318Z,35.30
2019-06-20T12:52:30.752Z,35.10
2019-06-20T12:54:59.182Z,35.40
2019-06-20T12:57:27.683Z,35.50
2019-06-20T12:59:56.162Z,35.70
2019-06-20T13:02:24.583Z,35.90
2019-06-20T13:04:52.999Z,36.20
2019-06-20T13:07:21.467Z,36.40
2019-06-20T13:09:49.878Z,36.80
2019-06-20T13:12:18.412Z,37.20
2019-06-20T13:14:47.574Z,37.50
2019-06-20T13:17:16.078Z,37.60
2019-06-20T13:19:44.496Z,37.70
2019-06-20T13:22:12.953Z,37.60
2019-06-20T13:24:42.725Z,37.80
2019-06-20T13:27:11.286Z,38.00
2019-06-20T13:29:40.775Z,38.40
2019-06-20T13:32:09.286Z,38.80
2019-06-20T13:34:39.510Z,38.90
2019-06-20T13:37:08.457Z,39.20
2019-06-20T13:39:38.482Z,39.30
2019-06-20T13:42:07.241Z,39.60
2019-06-20T13:44:35.693Z,39.70
2019-06-20T13:47:04.183Z,40.20
2019-06-20T13:49:32.663Z,41.00
2019-06-20T13:52:01.129Z,41.70
2019-06-20T13:54:29.618Z,42.80
2019-06-20T13:56:58.039Z,43.40
2019-06-20T13:59:26.461Z,43.80
2019-06-20T14:02:06.223Z,43.90
2019-06-20T14:04:25.035Z,45.50
2019-06-20T14:06:53.813Z,46.50
2019-06-20T14:09:22.361Z,47.60
2019-06-20T14:11:51.446Z,49.40
2019-06-20T14:14:19.989Z,50.70
2019-06-20T14:16:48.486Z,51.80
2019-06-20T14:19:16.895Z,53.10
2019-06-20T14:21:45.582Z,53.90
2019-06-20T14:24:14.038Z,55.30
2019-06-20T14:26:44.664Z,55.80
2019-06-20T14:29:12.772Z,57.20
2019-06-20T14:31:42.633Z,57.80
2019-06-20T14:34:11.343Z,59.20
2019-06-20T14:36:39.768Z,60.50
2019-06-20T14:39:08.286Z,61.20
2019-06-20T14:41:36.698Z,61.30
2019-06-20T14:44:05.259Z,62.50
2019-06-20T14:46:33.838Z,63.40
2019-06-20T14:49:02.287Z,63.40
2019-06-20T14:51:30.709Z,64.50
2019-06-20T14:53:59.298Z,66.10
2019-06-20T14:56:27.714Z,67.20
2019-06-20T14:58:56.139Z,67.60
2019-06-20T15:01:24.562Z,68.30
2019-06-20T15:03:53.839Z,68.80
2019-06-20T15:06:22.393Z,69.50
2019-06-20T15:08:52.155Z,70.20
2019-06-20T15:11:20.969Z,70.80
2019-06-20T15:13:49.401Z,71.00
2019-06-20T15:16:17.848Z,71.60
2019-06-20T15:18:48.336Z,72.30
2019-06-20T15:21:16.460Z,73.00
2019-06-20T15:23:47.229Z,72.30
2019-06-20T15:26:15.010Z,72.00
2019-06-20T15:28:43.449Z,72.60
2019-06-20T15:31:11.860Z,72.50
2019-06-20T15:33:40.278Z,72.90
2019-06-20T15:36:08.700Z,73.10
2019-06-20T15:38:37.136Z,72.90
2019-06-20T15:41:05.547Z,72.40
2019-06-20T15:43:33.970Z,72.50
2019-06-20T15:46:02.381Z,72.70
2019-06-20T15:48:30.809Z,73.00
2019-06-20T15:50:59.223Z,72.80
2019-06-20T15:53:27.828Z,71.80
2019-06-20T15:55:56.514Z,72.20
2019-06-20T15:58:24.950Z,72.10
2019-06-20T16:00:53.535Z,72.50
2019-06-20T16:03:22.073Z,72.50
2019-06-20T16:05:50.487Z,73.00
2019-06-20T16:08:18.986Z,72.30
2019-06-20T16:10:47.394Z,72.50
2019-06-20T16:13:15.835Z,72.80
2019-06-20T16:15:44.238Z,71.80
2019-06-20T16:18:12.837Z,71.70
2019-06-20T16:20:41.251Z,71.20
2019-06-20T16:23:09.748Z,71.50
2019-06-20T16:25:38.251Z,71.50
2019-06-20T16:28:06.683Z,72.00
2019-06-20T16:30:35.129Z,72.30
2019-06-20T16:33:03.787Z,71.60
2019-06-20T16:35:32.211Z,71.20
2019-06-20T16:38:00.714Z,71.00
2019-06-20T16:40:44.327Z,70.70
2019-06-20T16:43:12.825Z,70.50
2019-06-20T16:45:42.191Z,70.20
2019-06-20T16:48:10.619Z,69.40
2019-06-20T16:50:39.040Z,69.30
2019-06-20T16:53:07.536Z,69.30
2019-06-20T16:55:36.027Z,69.60
2019-06-20T16:58:04.984Z,69.20
2019-06-20T17:00:33.581Z,67.50
2019-06-20T17:03:02.233Z,67.00
2019-06-20T17:05:30.669Z,66.50
2019-06-20T17:07:59.092Z,65.70
2019-06-20T17:10:27.565Z,66.50
2019-06-20T17:12:56.024Z,65.90
2019-06-20T17:15:24.785Z,65.80
2019-06-20T17:17:53.367Z,66.30
2019-06-20T17:20:22.067Z,67.20
2019-06-20T17:22:50.475Z,66.50
2019-06-20T17:25:19.042Z,66.20
2019-06-20T17:27:47.467Z,66.10
2019-06-20T17:30:18.747Z,65.20
2019-06-20T17:32:47.238Z,64.60
2019-06-20T17:35:16.209Z,64.90
2019-06-20T17:37:45.151Z,64.50
2019-06-20T17:40:15.668Z,64.10
2019-06-20T17:42:44.090Z,64.10
2019-06-20T17:45:14.559Z,63.50
2019-06-20T17:47:42.977Z,62.70
2019-06-20T17:50:12.139Z,62.40
2019-06-20T17:52:40.879Z,61.60
2019-06-20T17:55:09.964Z,61.20
2019-06-20T17:57:38.454Z,61.00
2019-06-20T18:00:09.828Z,61.90
2019-06-20T18:02:38.250Z,60.80
2019-06-20T18:05:08.222Z,60.60
2019-06-20T18:07:36.652Z,60.70
2019-06-20T18:10:08.934Z,60.70
2019-06-20T18:12:37.490Z,60.90
2019-06-20T18:15:07.371Z,60.50
2019-06-20T18:17:35.794Z,60.00
2019-06-20T18:20:07.474Z,60.60
2019-06-20T18:22:35.975Z,60.90
2019-06-20T18:25:05.838Z,60.90
2019-06-20T18:27:34.248Z,61.10
2019-06-20T18:30:03.058Z,61.10
2019-06-20T18:32:31.478Z,61.20
2019-06-20T18:35:02.252Z,61.30
2019-06-20T18:37:31.708Z,61.50
2019-06-20T18:40:00.415Z,61.70
2019-06-20T18:42:28.896Z,62.00
2019-06-20T18:44:57.336Z,61.80
2019-06-20T18:47:25.823Z,62.70
2019-06-20T18:49:54.247Z,62.50
2019-06-20T18:52:22.666Z,62.60
2019-06-20T18:54:51.163Z,62.50
2019-06-20T18:57:19.733Z,62.80
2019-06-20T18:59:48.259Z,63.30
2019-06-20T19:02:16.674Z,63.00
2019-06-20T19:04:50.426Z,63.10
2019-06-20T19:07:15.248Z,63.20
2019-06-20T19:09:43.674Z,63.60
2019-06-20T19:12:12.092Z,63.90
2019-06-20T19:14:40.523Z,64.00
2019-06-20T19:17:09.052Z,64.00
2019-06-20T19:19:38.395Z,64.40
2019-06-20T19:22:06.847Z,64.60
2019-06-20T19:24:35.314Z,64.90
2019-06-20T19:27:03.982Z,65.00
2019-06-20T19:29:32.405Z,65.30
2019-06-20T19:32:00.827Z,65.60
2019-06-20T19:34:29.235Z,65.70
2019-06-20T19:36:57.670Z,65.90
2019-06-20T19:39:26.165Z,66.30
2019-06-20T19:41:54.617Z,66.50
2019-06-20T19:44:23.027Z,66.80
2019-06-20T19:46:51.453Z,67.00
2019-06-20T19:49:19.939Z,67.20
2019-06-20T19:51:48.372Z,67.40
2019-06-20T19:54:16.784Z,67.50
2019-06-20T19:56:45.224Z,67.60
2019-06-20T19:59:13.707Z,67.90
2019-06-20T20:01:42.207Z,68.10
2019-06-20T20:04:10.863Z,68.40
2019-06-20T20:06:39.359Z,68.70
2019-06-20T20:09:08.390Z,68.90
2019-06-20T20:11:36.824Z,69.00
2019-06-20T20:14:05.407Z,69.20
2019-06-20T20:16:33.916Z,69.40
2019-06-20T20:19:02.423Z,69.60
2019-06-20T20:21:30.855Z,69.70
2019-06-20T20:23:59.289Z,69.80
2019-06-20T20:26:27.719Z,69.80
2019-06-20T20:28:56.135Z,70.60
2019-06-20T20:31:24.572Z,70.10
2019-06-20T20:33:52.985Z,70.20
2019-06-20T20:36:25.308Z,70.40
2019-06-20T20:38:51.548Z,70.70
2019-06-20T20:41:20.274Z,70.70
2019-06-20T20:43:48.688Z,70.90
2019-06-20T20:46:17.113Z,71.10
2019-06-20T20:48:45.610Z,71.20
2019-06-20T20:51:14.046Z,71.30
2019-06-20T20:53:42.458Z,71.50
2019-06-20T20:56:10.877Z,71.50
2019-06-20T20:58:39.299Z,71.70
2019-06-20T21:01:16.286Z,71.80
2019-06-20T21:03:44.703Z,72.00
2019-06-20T21:06:32.471Z,71.90
2019-06-20T21:09:00.907Z,72.10
2019-06-20T21:11:29.347Z,71.70
2019-06-20T21:13:57.758Z,71.00
2019-06-20T21:16:26.552Z,70.00
2019-06-20T21:18:55.107Z,69.60
2019-06-20T21:21:23.561Z,69.20
2019-06-20T21:23:52.151Z,68.60
2019-06-20T21:26:20.712Z,68.10
2019-06-20T21:28:49.282Z,68.10
2019-06-20T21:31:17.682Z,68.30
2019-06-20T21:33:46.115Z,68.10
2019-06-20T21:36:14.528Z,68.30
2019-06-20T21:38:42.955Z,68.20
2019-06-20T21:41:11.381Z,68.20
2019-06-20T21:43:39.799Z,68.40
2019-06-20T21:46:08.219Z,68.40
2019-06-20T21:48:36.680Z,68.70
2019-06-20T21:51:05.099Z,69.00
2019-06-20T21:53:33.526Z,69.00
2019-06-20T21:56:01.935Z,69.10
2019-06-20T21:58:30.363Z,69.30
2019-06-20T22:01:00.169Z,69.40
2019-06-20T22:03:28.871Z,69.20
2019-06-20T22:05:57.291Z,69.20
2019-06-20T22:08:25.719Z,69.60
2019-06-20T22:10:54.275Z,69.90
2019-06-20T22:13:22.973Z,70.10
2019-06-20T22:15:51.454Z,70.10
2019-06-20T22:18:19.942Z,70.10
2019-06-20T22:20:48.558Z,70.20
2019-06-20T22:23:17.049Z,70.20
2019-06-20T22:25:45.531Z,70.60
2019-06-20T22:28:13.959Z,70.70
2019-06-20T22:30:45.818Z,70.90
2019-06-20T22:33:14.320Z,71.00
2019-06-20T22:35:45.896Z,71.10
2019-06-20T22:38:14.559Z,71.60
2019-06-20T22:40:42.972Z,72.30
2019-06-20T22:43:11.400Z,72.50
2019-06-20T22:45:39.983Z,72.70
2019-06-20T22:48:08.655Z,72.90
2019-06-20T22:50:38.041Z,73.20
2019-06-20T22:53:06.641Z,73.80
2019-06-20T22:55:35.498Z,73.60
2019-06-20T22:58:05.174Z,73.60
2019-06-20T23:00:34.019Z,73.60
2019-06-20T23:03:02.717Z,74.00
2019-06-20T23:05:31.207Z,74.10
2019-06-20T23:07:59.631Z,74.00
2019-06-20T23:10:28.045Z,74.00
2019-06-20T23:12:56.471Z,74.30
2019-06-20T23:15:25.083Z,74.20
2019-06-20T23:17:53.833Z,75.00
2019-06-20T23:20:22.700Z,74.30
2019-06-20T23:22:51.119Z,74.30
2019-06-20T23:25:19.812Z,74.40
2019-06-20T23:27:48.296Z,74.70
2019-06-20T23:30:17.369Z,74.70
2019-06-20T23:32:45.775Z,75.60
2019-06-20T23:35:14.275Z,74.80
2019-06-20T23:37:42.690Z,74.70
2019-06-20T23:40:11.359Z,75.30
2019-06-20T23:42:40.010Z,75.30
2019-06-20T23:45:09.596Z,75.40
2019-06-20T23:47:38.142Z,75.50
2019-06-20T23:50:09.442Z,75.50
2019-06-20T23:52:54.818Z,75.50
2019-06-20T23:55:23.252Z,75.50
2019-06-20T23:57:51.659Z,75.60
